createdAt,value
2022-12-18T00:01:10.527Z,1021.91
2022-12-18T00:06:10.644Z,1022.00
2022-12-18T00:11:08.941Z,1021.97
2022-12-18T00:16:08.273Z,1021.96
2022-12-18T00:21:09.592Z,1022.13
2022-12-18T00:26:08.901Z,1022.34
2022-12-18T00:31:06.289Z,1022.38
2022-12-18T00:36:06.401Z,1022.40
2022-12-18T00:41:05.736Z,1022.44
2022-12-18T00:46:05.074Z,1022.57
2022-12-18T00:51:04.263Z,1022.51
2022-12-18T00:56:02.559Z,1022.63
2022-12-18T01:01:00.915Z,1022.64
2022-12-18T01:06:00.155Z,1022.66
2022-12-18T01:11:00.258Z,1022.65
2022-12-18T01:15:59.627Z,1022.71
2022-12-18T01:20:59.733Z,1022.76
2022-12-18T01:25:58.194Z,1022.79
2022-12-18T01:30:57.288Z,1022.85
2022-12-18T01:35:56.579Z,1022.92
2022-12-18T01:40:56.890Z,1023.04
2022-12-18T01:45:55.226Z,1023.05
2022-12-18T01:50:55.362Z,1023.10
2022-12-18T01:55:54.719Z,1023.03
2022-12-18T02:00:53.098Z,1023.12
2022-12-18T02:05:54.252Z,1023.04
2022-12-18T02:10:52.544Z,1023.16
2022-12-18T02:15:51.825Z,1023.08
2022-12-18T02:20:51.129Z,1023.13
2022-12-18T02:25:50.440Z,1023.14
2022-12-18T02:30:50.767Z,1023.19
2022-12-18T02:35:47.871Z,1023.18
2022-12-18T02:40:48.178Z,1023.18
2022-12-18T02:45:47.498Z,1023.13
2022-12-18T02:50:45.793Z,1023.12
2022-12-18T02:55:45.092Z,1023.19
2022-12-18T03:00:44.372Z,1023.25
2022-12-18T03:05:44.664Z,1023.19
2022-12-18T03:10:42.968Z,1023.16
2022-12-18T03:15:42.273Z,1023.25
2022-12-18T03:20:42.574Z,1023.36
2022-12-18T03:25:41.873Z,1023.33
2022-12-18T03:30:40.274Z,1023.31
2022-12-18T03:35:38.392Z,1023.18
2022-12-18T03:40:39.765Z,1023.23
2022-12-18T03:45:38.058Z,1023.24
2022-12-18T03:50:38.363Z,1023.25
2022-12-18T03:55:37.662Z,1023.35
2022-12-18T04:00:35.996Z,1023.47
2022-12-18T04:05:37.157Z,1023.46
2022-12-18T04:10:35.441Z,1023.61
2022-12-18T04:15:35.777Z,1023.65
2022-12-18T04:20:32.861Z,1023.64
2022-12-18T04:25:32.168Z,1023.65
2022-12-18T04:30:32.450Z,1023.73
2022-12-18T04:35:30.754Z,1023.77
2022-12-18T04:40:30.046Z,1023.83
2022-12-18T04:45:29.368Z,1023.82
2022-12-18T04:50:28.545Z,1023.89
2022-12-18T04:55:28.646Z,1023.91
2022-12-18T05:00:27.948Z,1023.94
2022-12-18T05:05:26.076Z,1023.93
2022-12-18T05:10:27.394Z,1024.00
2022-12-18T05:15:25.594Z,1023.99
2022-12-18T05:20:24.904Z,1024.05
2022-12-18T05:25:23.221Z,1024.09
2022-12-18T05:30:22.699Z,1024.11
2022-12-18T05:35:21.796Z,1024.16
2022-12-18T05:40:22.137Z,1024.12
2022-12-18T05:45:21.429Z,1024.18
2022-12-18T05:50:19.706Z,1024.32
2022-12-18T05:55:20.028Z,1024.29
2022-12-18T06:00:18.325Z,1024.26
2022-12-18T06:05:18.694Z,1024.24
2022-12-18T06:10:16.825Z,1024.32
2022-12-18T06:15:17.162Z,1024.33
2022-12-18T06:20:15.438Z,1024.43
2022-12-18T06:25:14.682Z,1024.43
2022-12-18T06:30:14.011Z,1024.48
2022-12-18T06:35:13.196Z,1024.50
2022-12-18T06:40:12.426Z,1024.42
2022-12-18T06:45:12.743Z,1024.45
2022-12-18T06:50:11.053Z,1024.44
2022-12-18T06:55:10.366Z,1024.44
2022-12-18T07:00:09.661Z,1024.51
2022-12-18T07:05:11.298Z,1024.61
2022-12-18T07:10:08.211Z,1024.68
2022-12-18T07:15:07.571Z,1024.79
2022-12-18T07:20:07.697Z,1024.85
2022-12-18T07:25:06.006Z,1024.92
2022-12-18T07:30:07.311Z,1025.08
2022-12-18T07:35:06.628Z,1025.12
2022-12-18T07:40:03.915Z,1025.10
2022-12-18T07:45:03.259Z,1025.13
2022-12-18T07:50:03.351Z,1025.21
2022-12-18T07:55:01.657Z,1025.26
2022-12-18T08:00:00.949Z,1025.34
2022-12-18T08:05:00.235Z,1025.34
2022-12-18T08:10:00.530Z,1025.45
2022-12-18T08:14:58.680Z,1025.35
2022-12-18T08:19:59.987Z,1025.42
2022-12-18T08:24:57.300Z,1025.37
2022-12-18T08:29:56.611Z,1025.31
2022-12-18T08:34:56.977Z,1025.22
2022-12-18T08:39:56.091Z,1025.16
2022-12-18T08:44:54.421Z,1025.21
2022-12-18T08:49:54.562Z,1025.14
2022-12-18T08:54:52.856Z,1025.17
2022-12-18T08:59:53.139Z,1025.13
2022-12-18T09:04:57.118Z,1025.18
2022-12-18T09:09:50.645Z,1025.16
2022-12-18T09:14:50.934Z,1025.26
2022-12-18T09:19:49.243Z,1025.24
2022-12-18T09:24:48.520Z,1025.21
2022-12-18T09:29:47.811Z,1025.15
2022-12-18T09:34:47.113Z,1025.15
2022-12-18T09:39:46.467Z,1025.06
2022-12-18T09:44:45.956Z,1025.00
2022-12-18T09:49:44.904Z,1025.00
2022-12-18T09:54:44.209Z,1025.11
2022-12-18T09:59:44.523Z,1024.95
2022-12-18T10:04:44.950Z,1024.98
2022-12-18T10:09:42.089Z,1024.99
2022-12-18T10:14:41.421Z,1025.00
2022-12-18T10:19:41.738Z,1025.03
2022-12-18T10:24:39.093Z,1024.94
2022-12-18T10:29:39.258Z,1024.83
2022-12-18T10:34:38.383Z,1024.93
2022-12-18T10:39:37.688Z,1024.87
2022-12-18T10:44:37.004Z,1024.94
2022-12-18T10:49:37.313Z,1024.85
2022-12-18T10:54:35.614Z,1024.96
2022-12-18T10:59:34.886Z,1025.01
2022-12-18T11:04:34.145Z,1025.00
2022-12-18T11:09:34.400Z,1025.02
2022-12-18T11:14:32.659Z,1025.06
2022-12-18T11:19:31.937Z,1025.05
2022-12-18T11:24:31.236Z,1025.05
2022-12-18T11:29:31.554Z,1025.07
2022-12-18T11:34:30.540Z,1025.03
2022-12-18T11:39:29.224Z,1024.99
2022-12-18T11:44:30.367Z,1024.92
2022-12-18T11:49:27.679Z,1025.00
2022-12-18T11:54:28.023Z,1025.01
2022-12-18T11:59:28.320Z,1024.87
2022-12-18T12:04:25.637Z,1024.82
2022-12-18T12:09:25.782Z,1024.72
2022-12-18T12:14:24.060Z,1024.61
2022-12-18T12:19:24.370Z,1024.60
2022-12-18T12:24:24.643Z,1024.62
2022-12-18T12:29:22.893Z,1024.50
2022-12-18T12:34:21.083Z,1024.54
2022-12-18T12:39:20.284Z,1024.50
2022-12-18T12:44:19.489Z,1024.36
2022-12-18T12:49:18.667Z,1024.29
2022-12-18T12:54:18.825Z,1024.18
2022-12-18T12:59:17.991Z,1024.04
2022-12-18T13:04:16.352Z,1024.07
2022-12-18T13:09:15.381Z,1024.08
2022-12-18T13:14:15.641Z,1024.08
2022-12-18T13:19:13.957Z,1023.99
2022-12-18T13:24:13.129Z,1023.98
2022-12-18T13:29:12.326Z,1024.14
2022-12-18T13:34:25.705Z,1024.13
2022-12-18T13:39:10.754Z,1024.13
2022-12-18T13:44:08.964Z,1024.22
2022-12-18T13:49:09.245Z,1024.25
2022-12-18T13:54:08.620Z,1024.37
2022-12-18T13:59:08.787Z,1024.37
2022-12-18T14:04:07.101Z,1024.38
2022-12-18T14:09:06.310Z,1024.33
2022-12-18T14:14:04.513Z,1024.35
2022-12-18T14:19:15.177Z,1024.37
2022-12-18T14:24:05.941Z,1024.42
2022-12-18T14:29:02.149Z,1024.39
2022-12-18T14:34:02.325Z,1024.48
2022-12-18T14:39:03.624Z,1024.55
2022-12-18T14:44:00.836Z,1024.53
2022-12-18T14:49:00.217Z,1024.50
2022-12-18T14:54:01.269Z,1024.56
2022-12-18T14:58:59.426Z,1024.43
2022-12-18T15:03:58.517Z,1024.45
2022-12-18T15:08:56.937Z,1024.46
2022-12-18T15:13:59.146Z,1024.47
2022-12-18T15:18:55.408Z,1024.50
2022-12-18T15:23:55.431Z,1024.54
2022-12-18T15:28:54.019Z,1024.51
2022-12-18T15:33:53.070Z,1024.55
2022-12-18T15:38:53.990Z,1024.62
2022-12-18T15:43:51.491Z,1024.68
2022-12-18T15:48:50.841Z,1024.71
2022-12-18T15:53:49.942Z,1024.81
2022-12-18T15:58:50.251Z,1024.74
2022-12-18T16:03:49.693Z,1024.72
2022-12-18T16:08:47.925Z,1024.75
2022-12-18T16:13:47.766Z,1024.70
2022-12-18T16:18:46.324Z,1024.70
2022-12-18T16:23:46.394Z,1024.62
2022-12-18T16:28:48.352Z,1024.54
2022-12-18T16:33:44.637Z,1024.56
2022-12-18T16:38:43.998Z,1024.37
2022-12-18T16:43:42.717Z,1024.33
2022-12-18T16:48:41.746Z,1024.33
2022-12-18T16:53:41.319Z,1024.31
2022-12-18T16:58:40.290Z,1024.26
2022-12-18T17:03:39.810Z,1024.28
2022-12-18T17:08:38.356Z,1024.15
2022-12-18T17:13:39.099Z,1024.18
2022-12-18T17:18:36.683Z,1024.15
2022-12-18T17:23:36.260Z,1024.16
2022-12-18T17:28:35.354Z,1024.14
2022-12-18T17:33:34.749Z,1024.13
2022-12-18T17:38:33.953Z,1024.10
2022-12-18T17:43:34.090Z,1024.12
2022-12-18T17:48:33.454Z,1024.18
2022-12-18T17:53:31.701Z,1024.16
2022-12-18T17:58:32.862Z,1024.17
2022-12-18T18:03:32.174Z,1024.15
2022-12-18T18:08:29.338Z,1024.10
2022-12-18T18:13:33.494Z,1024.53
2022-12-18T18:18:28.889Z,1024.63
2022-12-18T18:23:27.213Z,1024.70
2022-12-18T18:28:25.133Z,1024.65
2022-12-18T18:33:26.719Z,1024.58
2022-12-18T18:38:24.928Z,1024.65
2022-12-18T18:43:24.174Z,1024.65
2022-12-18T18:48:23.398Z,1024.69
2022-12-18T18:53:21.242Z,1024.66
2022-12-18T18:58:21.571Z,1024.51
2022-12-18T19:03:21.982Z,1024.09
2022-12-18T19:08:20.091Z,1024.05
2022-12-18T19:13:19.666Z,1023.97
2022-12-18T19:18:19.918Z,1023.87
2022-12-18T19:23:23.179Z,1023.85
2022-12-18T19:28:21.922Z,1023.90
2022-12-18T19:33:41.793Z,1023.90
2022-12-18T19:38:15.523Z,1023.86
2022-12-18T19:43:15.008Z,1023.95
2022-12-18T19:48:14.361Z,1023.98
2022-12-18T19:53:13.204Z,1024.11
2022-12-18T19:58:15.709Z,1024.21
2022-12-18T20:03:22.374Z,1024.32
2022-12-18T20:08:11.186Z,1024.22
2022-12-18T20:13:15.227Z,1024.08
2022-12-18T20:18:11.194Z,1023.96
2022-12-18T20:23:10.965Z,1023.88
2022-12-18T20:28:08.211Z,1023.84
2022-12-18T20:33:07.543Z,1023.91
2022-12-18T20:38:06.703Z,1023.84
2022-12-18T20:43:05.698Z,1023.79
2022-12-18T20:48:05.236Z,1023.67
2022-12-18T20:53:04.135Z,1023.73
2022-12-18T20:58:03.421Z,1023.64
2022-12-18T21:03:02.738Z,1023.57
2022-12-18T21:08:05.788Z,1023.51
2022-12-18T21:13:04.625Z,1023.49
2022-12-18T21:18:01.488Z,1023.36
2022-12-18T21:23:15.840Z,1023.40
2022-12-18T21:27:59.778Z,1023.39
2022-12-18T21:32:57.969Z,1023.36
2022-12-18T21:37:57.176Z,1023.43
2022-12-18T21:42:57.354Z,1023.43
2022-12-18T21:47:56.512Z,1023.43
2022-12-18T21:52:54.671Z,1023.36
2022-12-18T21:57:53.826Z,1023.36
2022-12-18T22:03:10.455Z,1023.32
2022-12-18T22:07:53.236Z,1023.28
2022-12-18T22:12:54.834Z,1023.37
2022-12-18T22:17:50.712Z,1023.34
2022-12-18T22:22:51.000Z,1023.42
2022-12-18T22:27:49.285Z,1023.76
2022-12-18T22:32:48.676Z,1023.77
2022-12-18T22:37:47.833Z,1023.76
2022-12-18T22:42:47.935Z,1023.88
2022-12-18T22:47:45.154Z,1023.92
2022-12-18T22:52:45.416Z,1023.94
2022-12-18T22:57:48.740Z,1024.09
2022-12-18T23:02:44.180Z,1024.08
2022-12-18T23:07:43.238Z,1024.09
2022-12-18T23:12:42.501Z,1024.11
2022-12-18T23:17:41.850Z,1024.04
2022-12-18T23:22:39.896Z,1023.96
2022-12-18T23:27:41.203Z,1023.90
2022-12-18T23:32:40.449Z,1023.87
2022-12-18T23:38:01.100Z,1023.93
2022-12-18T23:42:37.984Z,1023.97
2022-12-18T23:47:37.230Z,1024.08
2022-12-18T23:52:36.592Z,1024.00
2022-12-18T23:57:35.661Z,1023.96
